createdAt,value
2022-12-08T12:12:18.110Z,77.00
2022-12-08T12:12:28.930Z,77.00
2022-12-08T12:12:40.062Z,67.00
2022-12-08T12:12:48.968Z,103.00
2022-12-08T12:12:59.010Z,111.00
2022-12-08T12:13:09.200Z,111.00
2022-12-08T12:13:19.346Z,114.00
2022-12-08T12:13:29.413Z,0.00
2022-12-08T12:13:39.330Z,0.00
2022-12-08T12:13:49.383Z,18.00
2022-12-08T12:13:59.682Z,18.00
2022-12-08T12:14:09.505Z,16.00
2022-12-08T12:14:19.591Z,89.00
2022-12-08T12:14:29.750Z,92.00
2022-12-08T12:14:39.736Z,110.00
2022-12-08T12:14:49.855Z,111.00
2022-12-08T12:14:59.971Z,111.00
2022-12-08T12:15:09.937Z,110.00
2022-12-08T12:15:20.101Z,110.00
2022-12-08T12:15:30.055Z,104.00
2022-12-08T12:15:40.116Z,111.00
2022-12-08T12:15:50.289Z,111.00
2022-12-08T12:16:00.237Z,114.00
2022-12-08T12:16:10.375Z,111.00
2022-12-08T12:16:20.445Z,116.00
2022-12-08T12:16:30.448Z,113.00
2022-12-08T12:16:40.548Z,106.00
2022-12-08T12:16:50.699Z,110.00
2022-12-08T12:17:00.897Z,109.00
2022-12-08T12:17:11.300Z,110.00
2022-12-08T12:17:21.876Z,110.00
2022-12-08T12:17:30.871Z,110.00
2022-12-08T12:17:41.031Z,118.00
2022-12-08T12:17:50.986Z,119.00
2022-12-08T12:18:01.065Z,121.00
2022-12-08T12:18:16.497Z,122.00
2022-12-08T12:18:21.867Z,118.00
2022-12-08T12:18:31.180Z,118.00
2022-12-08T12:18:41.362Z,117.00
2022-12-08T12:18:51.270Z,112.00
2022-12-08T12:19:01.326Z,110.00
2022-12-08T12:19:11.380Z,114.00
2022-12-08T12:19:21.429Z,115.00
2022-12-08T12:19:31.507Z,114.00
2022-12-08T12:19:41.577Z,112.00
2022-12-08T12:19:51.728Z,114.00
2022-12-08T12:20:02.247Z,114.00
2022-12-08T12:20:12.064Z,114.00
2022-12-08T12:20:22.010Z,113.00
2022-12-08T12:20:31.958Z,113.00
2022-12-08T12:20:41.997Z,121.00
2022-12-08T12:20:52.017Z,111.00
2022-12-08T12:21:02.111Z,85.00
2022-12-08T12:21:12.229Z,32.00
